AIC5PK VAUD-VABB
Flight info
| Callsign | AIC5PK |
|---|---|
| Flight time | 1h 1m |
| Altitude | 36000 |
| Route | BEGON Q2 AKTIV IGBAN2A |
| Aircraft | A21N/M-SDE2E3FGHIRWXY/LB1 |
Departure
| Time | 2026-05-04 07:34 |
|---|---|
| Airport | Maharana Pratap Airport (VAUD) |
Arrival
| Time | 2026-05-04 08:35 |
|---|---|
| Airport | Chhatrapati Shivaji Maharaj International Airport (VABB) |
| Time | Latitude | Longitude | Altitude | Speed | Heading |
|---|---|---|---|---|---|
| 2026-05-04 06:09 | 24.61908 | 73.89056 | 1688 ft | 0 kts | 352° |
| 2026-05-04 07:23 | 24.61907 | 73.89056 | 1688 ft | 1 kts | 353° |
| 2026-05-04 07:24 | 24.61893 | 73.89059 | 1688 ft | 2 kts | 349° |
| 2026-05-04 07:24 | 24.61878 | 73.89061 | 1688 ft | 2 kts | 353° |
| 2026-05-04 07:24 | 24.61864 | 73.89063 | 1688 ft | 2 kts | 351° |
| 2026-05-04 07:24 | 24.61849 | 73.89065 | 1688 ft | 2 kts | 11° |
| 2026-05-04 07:25 | 24.61835 | 73.89059 | 1688 ft | 2 kts | 35° |
| 2026-05-04 07:26 | 24.61820 | 73.89028 | 1688 ft | 0 kts | 82° |
| 2026-05-04 07:27 | 24.61820 | 73.89033 | 1688 ft | 1 kts | 82° |
| 2026-05-04 07:27 | 24.61824 | 73.89064 | 1688 ft | 6 kts | 81° |
| 2026-05-04 07:27 | 24.61833 | 73.89126 | 1688 ft | 10 kts | 81° |
| 2026-05-04 07:27 | 24.61815 | 73.89150 | 1688 ft | 5 kts | 181° |
| 2026-05-04 07:28 | 24.61766 | 73.89152 | 1688 ft | 8 kts | 173° |
| 2026-05-04 07:28 | 24.61709 | 73.89195 | 1687 ft | 12 kts | 116° |
| 2026-05-04 07:28 | 24.61714 | 73.89306 | 1685 ft | 17 kts | 82° |
| 2026-05-04 07:28 | 24.61733 | 73.89448 | 1684 ft | 20 kts | 83° |
| 2026-05-04 07:29 | 24.61751 | 73.89616 | 1681 ft | 23 kts | 83° |
| 2026-05-04 07:29 | 24.61778 | 73.89801 | 1681 ft | 25 kts | 80° |
| 2026-05-04 07:29 | 24.61810 | 73.89999 | 1681 ft | 26 kts | 81° |
| 2026-05-04 07:29 | 24.61836 | 73.90198 | 1681 ft | 25 kts | 83° |
| 2026-05-04 07:30 | 24.61863 | 73.90383 | 1681 ft | 24 kts | 81° |
| 2026-05-04 07:30 | 24.61888 | 73.90564 | 1680 ft | 23 kts | 82° |
| 2026-05-04 07:30 | 24.61912 | 73.90739 | 1677 ft | 23 kts | 77° |
| 2026-05-04 07:30 | 24.61983 | 73.90872 | 1677 ft | 15 kts | 69° |
| 2026-05-04 07:31 | 24.61961 | 73.90958 | 1677 ft | 8 kts | 156° |
| 2026-05-04 07:31 | 24.61935 | 73.90941 | 1677 ft | 4 kts | 259° |
| 2026-05-04 07:33 | 24.61912 | 73.90777 | 1677 ft | 50 kts | 261° |
| 2026-05-04 07:33 | 24.61828 | 73.90159 | 1681 ft | 113 kts | 261° |
| 2026-05-04 07:33 | 24.61682 | 73.89089 | 1694 ft | 165 kts | 259° |
| 2026-05-04 07:33 | 24.61497 | 73.87781 | 2036 ft | 178 kts | 261° |
| 2026-05-04 07:34 | 24.61321 | 73.86441 | 2612 ft | 181 kts | 262° |
| 2026-05-04 07:34 | 24.61132 | 73.85087 | 3211 ft | 179 kts | 258° |
| 2026-05-04 07:34 | 24.60518 | 73.83890 | 3579 ft | 192 kts | 222° |
| 2026-05-04 07:34 | 24.59224 | 73.83395 | 3845 ft | 212 kts | 180° |
| 2026-05-04 07:35 | 24.57718 | 73.83649 | 4151 ft | 228 kts | 172° |
| 2026-05-04 07:35 | 24.56071 | 73.83928 | 4380 ft | 250 kts | 173° |
| 2026-05-04 07:35 | 24.54295 | 73.84204 | 4761 ft | 264 kts | 174° |
| 2026-05-04 07:35 | 24.52441 | 73.84486 | 5303 ft | 273 kts | 173° |
| 2026-05-04 07:36 | 24.50540 | 73.84779 | 5848 ft | 282 kts | 173° |
| 2026-05-04 07:36 | 24.48573 | 73.85083 | 6569 ft | 284 kts | 173° |
| 2026-05-04 07:38 | 24.34163 | 73.87300 | 10935 ft | 334 kts | 172° |
| 2026-05-04 07:38 | 24.31810 | 73.87664 | 11453 ft | 345 kts | 172° |
| 2026-05-04 07:38 | 24.29428 | 73.88032 | 12179 ft | 349 kts | 172° |
| 2026-05-04 07:38 | 24.26992 | 73.88409 | 12975 ft | 351 kts | 171° |
| 2026-05-04 07:39 | 24.24565 | 73.88786 | 13720 ft | 355 kts | 172° |
| 2026-05-04 07:39 | 24.22117 | 73.89169 | 14422 ft | 359 kts | 172° |
| 2026-05-04 07:39 | 24.19644 | 73.89554 | 15123 ft | 362 kts | 173° |
| 2026-05-04 07:39 | 24.17135 | 73.89942 | 15809 ft | 366 kts | 173° |
| 2026-05-04 07:40 | 24.14617 | 73.90330 | 16483 ft | 370 kts | 174° |
| 2026-05-04 07:40 | 24.12041 | 73.90727 | 17137 ft | 374 kts | 174° |
| 2026-05-04 07:40 | 24.09460 | 73.91123 | 17776 ft | 378 kts | 174° |
| 2026-05-04 07:40 | 24.06848 | 73.91522 | 18394 ft | 382 kts | 174° |
| 2026-05-04 07:41 | 24.04204 | 73.91926 | 19002 ft | 386 kts | 174° |
| 2026-05-04 07:41 | 24.01528 | 73.92337 | 19588 ft | 390 kts | 174° |
| 2026-05-04 07:41 | 23.98831 | 73.92750 | 20182 ft | 394 kts | 174° |
| 2026-05-04 07:41 | 23.96108 | 73.93168 | 20784 ft | 397 kts | 174° |
| 2026-05-04 07:42 | 23.93326 | 73.93595 | 21369 ft | 401 kts | 174° |
| 2026-05-04 07:42 | 23.90554 | 73.94021 | 21922 ft | 405 kts | 174° |
| 2026-05-04 07:42 | 23.87753 | 73.94450 | 22460 ft | 409 kts | 175° |
| 2026-05-04 07:42 | 23.84920 | 73.94884 | 22961 ft | 413 kts | 175° |
| 2026-05-04 07:43 | 23.82069 | 73.95322 | 23449 ft | 417 kts | 175° |
| 2026-05-04 07:43 | 23.79182 | 73.95766 | 23915 ft | 421 kts | 175° |
| 2026-05-04 07:43 | 23.76267 | 73.96211 | 24347 ft | 425 kts | 175° |
| 2026-05-04 07:43 | 23.73334 | 73.96660 | 24765 ft | 428 kts | 175° |
| 2026-05-04 07:44 | 23.70347 | 73.97118 | 25183 ft | 431 kts | 175° |
| 2026-05-04 07:44 | 23.67353 | 73.97575 | 25584 ft | 434 kts | 175° |
| 2026-05-04 07:44 | 23.64368 | 73.98032 | 25949 ft | 437 kts | 176° |
| 2026-05-04 07:44 | 23.61359 | 73.98492 | 26305 ft | 441 kts | 176° |
| 2026-05-04 07:45 | 23.58270 | 73.98965 | 26650 ft | 444 kts | 176° |
| 2026-05-04 07:45 | 23.55221 | 73.99429 | 26976 ft | 447 kts | 176° |
| 2026-05-04 07:45 | 23.52124 | 73.99901 | 27313 ft | 449 kts | 176° |
| 2026-05-04 07:45 | 23.49019 | 74.00375 | 27615 ft | 452 kts | 176° |
| 2026-05-04 07:46 | 23.45865 | 74.00855 | 27921 ft | 455 kts | 176° |
| 2026-05-04 07:46 | 23.42746 | 74.01329 | 28233 ft | 457 kts | 176° |
| 2026-05-04 07:46 | 23.39579 | 74.01813 | 28524 ft | 459 kts | 176° |
| 2026-05-04 07:46 | 23.36401 | 74.02296 | 28790 ft | 462 kts | 176° |
| 2026-05-04 07:47 | 23.33209 | 74.02782 | 29075 ft | 464 kts | 176° |
| 2026-05-04 07:47 | 23.30026 | 74.03265 | 29363 ft | 466 kts | 176° |
| 2026-05-04 07:47 | 23.26781 | 74.03759 | 29616 ft | 468 kts | 176° |
| 2026-05-04 07:49 | 23.03939 | 74.07227 | 31515 ft | 475 kts | 176° |
| 2026-05-04 07:49 | 23.00689 | 74.07720 | 31866 ft | 473 kts | 176° |
| 2026-05-04 07:49 | 22.97386 | 74.08219 | 32192 ft | 472 kts | 176° |
| 2026-05-04 07:50 | 22.94160 | 74.08707 | 32504 ft | 472 kts | 176° |
| 2026-05-04 07:50 | 22.90893 | 74.09204 | 32847 ft | 471 kts | 177° |
| 2026-05-04 07:50 | 22.87655 | 74.09695 | 33241 ft | 469 kts | 177° |
| 2026-05-04 07:50 | 22.84417 | 74.10187 | 33642 ft | 466 kts | 177° |
| 2026-05-04 07:51 | 22.81244 | 74.10668 | 34037 ft | 464 kts | 177° |
| 2026-05-04 07:51 | 22.78018 | 74.11154 | 34402 ft | 462 kts | 177° |
| 2026-05-04 07:51 | 22.74843 | 74.11633 | 34720 ft | 462 kts | 178° |
| 2026-05-04 07:51 | 22.71674 | 74.12085 | 34999 ft | 460 kts | 180° |
| 2026-05-04 07:52 | 22.68480 | 74.12317 | 35214 ft | 457 kts | 184° |
| 2026-05-04 07:52 | 22.65296 | 74.12273 | 35436 ft | 454 kts | 189° |
| 2026-05-04 07:52 | 22.62193 | 74.11964 | 35654 ft | 450 kts | 193° |
| 2026-05-04 07:52 | 22.59074 | 74.11388 | 35813 ft | 448 kts | 198° |
| 2026-05-04 07:54 | 22.35766 | 74.02696 | 35798 ft | 443 kts | 205° |
| 2026-05-04 07:55 | 22.29953 | 74.00425 | 35793 ft | 443 kts | 205° |
| 2026-05-04 07:55 | 22.24160 | 73.98164 | 35796 ft | 444 kts | 206° |
| 2026-05-04 07:56 | 22.18330 | 73.95892 | 35799 ft | 444 kts | 206° |
| 2026-05-04 07:56 | 22.12535 | 73.93635 | 35801 ft | 444 kts | 205° |
| 2026-05-04 07:57 | 22.06714 | 73.91370 | 35807 ft | 445 kts | 206° |
| 2026-05-04 07:57 | 22.00866 | 73.89094 | 35811 ft | 444 kts | 205° |
| 2026-05-04 07:58 | 21.95047 | 73.86835 | 35814 ft | 444 kts | 205° |
| 2026-05-04 07:58 | 21.89259 | 73.84589 | 35830 ft | 444 kts | 206° |
| 2026-05-04 07:59 | 21.83434 | 73.82330 | 35844 ft | 445 kts | 206° |
| 2026-05-04 07:59 | 21.77602 | 73.80069 | 35855 ft | 445 kts | 205° |
| 2026-05-04 08:00 | 21.71779 | 73.77816 | 35864 ft | 445 kts | 205° |
| 2026-05-04 08:02 | 21.48380 | 73.68776 | 35822 ft | 447 kts | 205° |
| 2026-05-04 08:02 | 21.42501 | 73.66511 | 35816 ft | 447 kts | 205° |
| 2026-05-04 08:03 | 21.36656 | 73.64259 | 35814 ft | 447 kts | 205° |
| 2026-05-04 08:03 | 21.30789 | 73.62002 | 35807 ft | 447 kts | 205° |
| 2026-05-04 08:04 | 21.24941 | 73.59753 | 35798 ft | 447 kts | 205° |
| 2026-05-04 08:04 | 21.19080 | 73.57501 | 35802 ft | 448 kts | 205° |
| 2026-05-04 08:05 | 21.13149 | 73.55392 | 35795 ft | 451 kts | 203° |
| 2026-05-04 08:05 | 21.10143 | 73.54381 | 35500 ft | 450 kts | 203° |
| 2026-05-04 08:05 | 21.07150 | 73.53376 | 35206 ft | 448 kts | 202° |
| 2026-05-04 08:06 | 21.04203 | 73.52387 | 34823 ft | 445 kts | 202° |
| 2026-05-04 08:06 | 21.01253 | 73.51397 | 34267 ft | 444 kts | 203° |
| 2026-05-04 08:06 | 20.98305 | 73.50407 | 33572 ft | 445 kts | 202° |
| 2026-05-04 08:06 | 20.95310 | 73.49399 | 32773 ft | 447 kts | 202° |
| 2026-05-04 08:08 | 20.74535 | 73.42441 | 28530 ft | 439 kts | 202° |
| 2026-05-04 08:08 | 20.71625 | 73.41470 | 28052 ft | 436 kts | 202° |
| 2026-05-04 08:10 | 20.48813 | 73.33844 | 24160 ft | 422 kts | 201° |
| 2026-05-04 08:11 | 20.46024 | 73.32915 | 23683 ft | 420 kts | 201° |
| 2026-05-04 08:11 | 20.40482 | 73.31068 | 22737 ft | 414 kts | 200° |
| 2026-05-04 08:11 | 20.37746 | 73.30158 | 22274 ft | 411 kts | 200° |
| 2026-05-04 08:12 | 20.35033 | 73.29255 | 21816 ft | 407 kts | 200° |
| 2026-05-04 08:12 | 20.32332 | 73.28356 | 21390 ft | 403 kts | 200° |
| 2026-05-04 08:12 | 20.29666 | 73.27470 | 20958 ft | 399 kts | 200° |
| 2026-05-04 08:12 | 20.27024 | 73.26592 | 20526 ft | 395 kts | 200° |
| 2026-05-04 08:13 | 20.24421 | 73.25729 | 20118 ft | 392 kts | 199° |
| 2026-05-04 08:13 | 20.21810 | 73.24891 | 19688 ft | 388 kts | 199° |
| 2026-05-04 08:13 | 20.19239 | 73.24078 | 19275 ft | 385 kts | 199° |
| 2026-05-04 08:13 | 20.16692 | 73.23276 | 18839 ft | 381 kts | 198° |
| 2026-05-04 08:14 | 20.14130 | 73.22467 | 18426 ft | 377 kts | 198° |
| 2026-05-04 08:14 | 20.11654 | 73.21684 | 18161 ft | 369 kts | 198° |
| 2026-05-04 08:14 | 20.09227 | 73.20918 | 18052 ft | 355 kts | 198° |
| 2026-05-04 08:16 | 19.93351 | 73.18507 | 15872 ft | 321 kts | 186° |
| 2026-05-04 08:16 | 19.91132 | 73.18322 | 15468 ft | 320 kts | 186° |
| 2026-05-04 08:16 | 19.88919 | 73.18135 | 15055 ft | 319 kts | 186° |
| 2026-05-04 08:17 | 19.86705 | 73.17948 | 14634 ft | 318 kts | 186° |
| 2026-05-04 08:17 | 19.84495 | 73.17762 | 14224 ft | 316 kts | 186° |
| 2026-05-04 08:17 | 19.82315 | 73.17579 | 13854 ft | 314 kts | 186° |
| 2026-05-04 08:17 | 19.80132 | 73.17394 | 13474 ft | 313 kts | 186° |
| 2026-05-04 08:19 | 19.65126 | 73.16128 | 10979 ft | 300 kts | 186° |
| 2026-05-04 08:19 | 19.63061 | 73.15952 | 10679 ft | 298 kts | 185° |
| 2026-05-04 08:20 | 19.61003 | 73.15778 | 10332 ft | 297 kts | 185° |
| 2026-05-04 08:20 | 19.58920 | 73.15604 | 9953 ft | 297 kts | 185° |
| 2026-05-04 08:20 | 19.56857 | 73.15431 | 9595 ft | 296 kts | 185° |
| 2026-05-04 08:20 | 19.54815 | 73.15260 | 9308 ft | 292 kts | 185° |
| 2026-05-04 08:21 | 19.52825 | 73.15093 | 9201 ft | 280 kts | 185° |
| 2026-05-04 08:21 | 19.50916 | 73.14983 | 9037 ft | 273 kts | 182° |
| 2026-05-04 08:21 | 19.49000 | 73.14933 | 8704 ft | 273 kts | 182° |
| 2026-05-04 08:21 | 19.47101 | 73.14893 | 8366 ft | 273 kts | 182° |
| 2026-05-04 08:22 | 19.45205 | 73.14854 | 8037 ft | 272 kts | 183° |
| 2026-05-04 08:22 | 19.43287 | 73.14812 | 7703 ft | 271 kts | 183° |
| 2026-05-04 08:24 | 19.30301 | 73.14513 | 5490 ft | 262 kts | 184° |
| 2026-05-04 08:24 | 19.28471 | 73.14471 | 5161 ft | 261 kts | 184° |
| 2026-05-04 08:24 | 19.26675 | 73.14429 | 4850 ft | 259 kts | 184° |
| 2026-05-04 08:24 | 19.24851 | 73.14414 | 4537 ft | 260 kts | 181° |
| 2026-05-04 08:25 | 19.23041 | 73.14481 | 4271 ft | 256 kts | 180° |
| 2026-05-04 08:25 | 19.21297 | 73.14568 | 4116 ft | 248 kts | 180° |
| 2026-05-04 08:25 | 19.19596 | 73.14658 | 3894 ft | 243 kts | 180° |
| 2026-05-04 08:25 | 19.17897 | 73.14748 | 3599 ft | 242 kts | 180° |
| 2026-05-04 08:26 | 19.16205 | 73.14834 | 3303 ft | 241 kts | 180° |
| 2026-05-04 08:27 | 19.09346 | 73.08940 | 2957 ft | 151 kts | 262° |
| 2026-05-04 08:28 | 19.09222 | 73.07812 | 3004 ft | 163 kts | 266° |
| 2026-05-04 08:28 | 19.09167 | 73.06580 | 3015 ft | 171 kts | 269° |
| 2026-05-04 08:28 | 19.09139 | 73.05304 | 3002 ft | 171 kts | 269° |
| 2026-05-04 08:28 | 19.09120 | 73.04099 | 2864 ft | 160 kts | 269° |
| 2026-05-04 08:29 | 19.09104 | 73.02943 | 2645 ft | 152 kts | 269° |
| 2026-05-04 08:29 | 19.09088 | 73.01861 | 2485 ft | 148 kts | 269° |
| 2026-05-04 08:29 | 19.09072 | 73.00761 | 2295 ft | 147 kts | 269° |
| 2026-05-04 08:31 | 19.08957 | 72.93278 | 996 ft | 144 kts | 267° |
| 2026-05-04 08:33 | 19.08907 | 72.89202 | 319 ft | 142 kts | 267° |
| 2026-05-04 08:33 | 19.08896 | 72.88156 | 139 ft | 141 kts | 267° |
| 2026-05-04 08:35 | 19.09131 | 72.85411 | 30 ft | 4 kts | 360° |
| 2026-05-04 08:35 | 19.09152 | 72.85411 | 30 ft | 0 kts | 360° |